sensor_id;sensor_type;location;lat;lon;timestamp;pressure;altitude;pressure_sealevel;temperature;humidity
3524;BME280;1776;53.330;11.498;2023-05-01T00:02:25;25219.91;;;-147.39;45.67
3524;BME280;1776;53.330;11.498;2023-05-01T00:04:51;25274.81;;;-147.39;45.54
3524;BME280;1776;53.330;11.498;2023-05-01T00:07:16;25317.53;;;-147.39;45.58
3524;BME280;1776;53.330;11.498;2023-05-01T00:09:41;25213.78;;;-147.39;45.93
3524;BME280;1776;53.330;11.498;2023-05-01T00:12:06;25203.63;;;-147.39;45.89
3524;BME280;1776;53.330;11.498;2023-05-01T00:14:32;25197.53;;;-147.39;45.95
3524;BME280;1776;53.330;11.498;2023-05-01T00:16:57;25226.00;;;-147.39;45.91
3524;BME280;1776;53.330;11.498;2023-05-01T00:19:22;25203.63;;;-147.39;46.25
3524;BME280;1776;53.330;11.498;2023-05-01T00:21:48;25150.75;;;-147.39;46.45
3524;BME280;1776;53.330;11.498;2023-05-01T00:24:15;25171.09;;;-147.39;46.43
3524;BME280;1776;53.330;11.498;2023-05-01T00:26:41;25209.72;;;-147.39;46.07
3524;BME280;1776;53.330;11.498;2023-05-01T00:29:06;25179.22;;;-147.39;46.05
3524;BME280;1776;53.330;11.498;2023-05-01T00:31:32;25219.91;;;-147.39;46.34
3524;BME280;1776;53.330;11.498;2023-05-01T00:33:57;25185.31;;;-147.39;46.44
3524;BME280;1776;53.330;11.498;2023-05-01T00:36:22;25152.78;;;-147.39;46.73
3524;BME280;1776;53.330;11.498;2023-05-01T00:38:47;25138.53;;;-147.39;46.62
3524;BME280;1776;53.330;11.498;2023-05-01T00:41:13;25181.25;;;-147.39;46.43
3524;BME280;1776;53.330;11.498;2023-05-01T00:43:38;25179.22;;;-147.39;46.62
3524;BME280;1776;53.330;11.498;2023-05-01T00:46:03;25171.09;;;-147.39;46.70
3524;BME280;1776;53.330;11.498;2023-05-01T00:48:30;25162.94;;;-147.39;46.98
3524;BME280;1776;53.330;11.498;2023-05-01T00:50:56;25128.38;;;-147.39;46.79
3524;BME280;1776;53.330;11.498;2023-05-01T00:53:22;25130.41;;;-147.39;46.89
3524;BME280;1776;53.330;11.498;2023-05-01T00:55:49;25108.03;;;-147.39;46.83
3524;BME280;1776;53.330;11.498;2023-05-01T00:58:16;25116.19;;;-147.39;46.77
3524;BME280;1776;53.330;11.498;2023-05-01T01:00:42;25136.50;;;-147.39;46.98
3524;BME280;1776;53.330;11.498;2023-05-01T01:03:07;25160.91;;;-147.39;47.05
3524;BME280;1776;53.330;11.498;2023-05-01T01:05:39;25110.06;;;-147.39;47.51
3524;BME280;1776;53.330;11.498;2023-05-01T01:08:13;25091.78;;;-147.39;47.33
3524;BME280;1776;53.330;11.498;2023-05-01T01:10:53;25101.94;;;-147.39;47.60
3524;BME280;1776;53.330;11.498;2023-05-01T01:13:50;25106.00;;;-147.39;47.48
3524;BME280;1776;53.330;11.498;2023-05-01T01:19:05;25138.53;;;-147.39;47.58
3524;BME280;1776;53.330;11.498;2023-05-01T01:21:41;25073.47;;;-147.39;47.68
3524;BME280;1776;53.330;11.498;2023-05-01T01:24:27;25055.16;;;-147.39;47.54
3524;BME280;1776;53.330;11.498;2023-05-01T01:27:30;25061.25;;;-147.39;47.69
3524;BME280;1776;53.330;11.498;2023-05-01T01:30:46;25042.97;;;-147.39;47.96
3524;BME280;1776;53.330;11.498;2023-05-01T01:33:21;25014.47;;;-147.39;48.08
3524;BME280;1776;53.330;11.498;2023-05-01T01:35:54;25034.81;;;-147.39;48.08
3524;BME280;1776;53.330;11.498;2023-05-01T01:38:26;24998.22;;;-147.39;48.31
3524;BME280;1776;53.330;11.498;2023-05-01T01:41:00;24994.16;;;-147.39;48.42
3524;BME280;1776;53.330;11.498;2023-05-01T01:43:31;25012.44;;;-147.39;48.73
3524;BME280;1776;53.330;11.498;2023-05-01T01:45:59;24971.78;;;-147.39;48.57
3524;BME280;1776;53.330;11.498;2023-05-01T01:48:30;24990.09;;;-147.39;48.95
3524;BME280;1776;53.330;11.498;2023-05-01T01:50:58;24973.81;;;-147.39;48.90
3524;BME280;1776;53.330;11.498;2023-05-01T01:53:25;24996.19;;;-147.39;48.85
3524;BME280;1776;53.330;11.498;2023-05-01T01:55:53;24949.41;;;-147.39;49.03
3524;BME280;1776;53.330;11.498;2023-05-01T01:58:20;24975.84;;;-147.39;49.29
3524;BME280;1776;53.330;11.498;2023-05-01T02:00:50;25004.31;;;-147.39;49.34
3524;BME280;1776;53.330;11.498;2023-05-01T02:03:16;24955.50;;;-147.39;49.49
3524;BME280;1776;53.330;11.498;2023-05-01T02:05:42;24918.91;;;-147.39;49.76
3524;BME280;1776;53.330;11.498;2023-05-01T02:08:10;24927.03;;;-147.39;49.41
3524;BME280;1776;53.330;11.498;2023-05-01T02:10:36;24929.06;;;-147.39;49.41
3524;BME280;1776;53.330;11.498;2023-05-01T02:13:03;24941.28;;;-147.39;49.94
3524;BME280;1776;53.330;11.498;2023-05-01T02:15:29;24886.38;;;-147.39;49.63
3524;BME280;1776;53.330;11.498;2023-05-01T02:17:56;24884.31;;;-147.39;49.97
3524;BME280;1776;53.330;11.498;2023-05-01T02:20:22;24864.00;;;-147.39;49.97
3524;BME280;1776;53.330;11.498;2023-05-01T02:22:49;24859.94;;;-147.39;49.72
3524;BME280;1776;53.330;11.498;2023-05-01T02:25:17;24839.59;;;-147.39;49.78
3524;BME280;1776;53.330;11.498;2023-05-01T02:27:46;24829.41;;;-147.39;50.04
3524;BME280;1776;53.330;11.498;2023-05-01T02:30:13;24847.72;;;-147.39;50.12
3524;BME280;1776;53.330;11.498;2023-05-01T02:32:38;24796.88;;;-147.39;49.97
3524;BME280;1776;53.330;11.498;2023-05-01T02:35:04;24823.31;;;-147.39;50.29
3524;BME280;1776;53.330;11.498;2023-05-01T02:37:29;24825.34;;;-147.39;49.99
3524;BME280;1776;53.330;11.498;2023-05-01T02:39:55;24815.19;;;-147.39;50.34
3524;BME280;1776;53.330;11.498;2023-05-01T02:42:21;24815.19;;;-147.39;50.55
3524;BME280;1776;53.330;11.498;2023-05-01T02:44:55;24853.81;;;-147.39;50.38
3524;BME280;1776;53.330;11.498;2023-05-01T02:47:22;24817.22;;;-147.39;50.21
3524;BME280;1776;53.330;11.498;2023-05-01T02:49:48;24764.34;;;-147.39;50.23
3524;BME280;1776;53.330;11.498;2023-05-01T02:52:15;24786.72;;;-147.39;50.43
3524;BME280;1776;53.330;11.498;2023-05-01T02:54:42;24807.03;;;-147.39;50.33
3524;BME280;1776;53.330;11.498;2023-05-01T02:57:09;24786.72;;;-147.39;50.64
3524;BME280;1776;53.330;11.498;2023-05-01T02:59:34;24744.00;;;-147.39;50.55
3524;BME280;1776;53.330;11.498;2023-05-01T03:02:00;24817.22;;;-147.39;50.43
3524;BME280;1776;53.330;11.498;2023-05-01T03:04:25;24766.38;;;-147.39;50.38
3524;BME280;1776;53.330;11.498;2023-05-01T03:06:51;24772.47;;;-147.39;50.62
3524;BME280;1776;53.330;11.498;2023-05-01T03:09:16;24725.69;;;-147.39;50.89
3524;BME280;1776;53.330;11.498;2023-05-01T03:11:41;24727.75;;;-147.39;50.46
3524;BME280;1776;53.330;11.498;2023-05-01T03:14:06;24766.38;;;-147.39;50.94
3524;BME280;1776;53.330;11.498;2023-05-01T03:16:32;24772.47;;;-147.39;50.57
3524;BME280;1776;53.330;11.498;2023-05-01T03:18:58;24760.28;;;-147.39;50.87
3524;BME280;1776;53.330;11.498;2023-05-01T03:21:23;24733.84;;;-147.39;50.58
3524;BME280;1776;53.330;11.498;2023-05-01T03:23:48;24713.50;;;-147.39;50.77
3524;BME280;1776;53.330;11.498;2023-05-01T03:26:13;24705.38;;;-147.39;51.02
3524;BME280;1776;53.330;11.498;2023-05-01T03:28:39;24705.38;;;-147.39;51.19
3524;BME280;1776;53.330;11.498;2023-05-01T03:31:04;24703.34;;;-147.39;51.45
3524;BME280;1776;53.330;11.498;2023-05-01T03:33:29;24719.59;;;-147.39;51.20
3524;BME280;1776;53.330;11.498;2023-05-01T03:36:02;24678.94;;;-147.39;51.30
3524;BME280;1776;53.330;11.498;2023-05-01T03:38:29;24664.69;;;-147.39;51.47
3524;BME280;1776;53.330;11.498;2023-05-01T03:40:54;24683.00;;;-147.39;51.64
3524;BME280;1776;53.330;11.498;2023-05-01T03:43:20;24662.66;;;-147.39;51.70
3524;BME280;1776;53.330;11.498;2023-05-01T03:45:45;24664.69;;;-147.39;51.83
3524;BME280;1776;53.330;11.498;2023-05-01T03:48:10;24607.75;;;-147.39;52.33
3524;BME280;1776;53.330;11.498;2023-05-01T03:50:35;24650.47;;;-147.39;51.80
3524;BME280;1776;53.330;11.498;2023-05-01T03:53:01;24646.41;;;-147.39;51.68
3524;BME280;1776;53.330;11.498;2023-05-01T03:55:26;24603.69;;;-147.39;51.51
3524;BME280;1776;53.330;11.498;2023-05-01T03:57:52;24622.00;;;-147.39;51.44
3524;BME280;1776;53.330;11.498;2023-05-01T04:00:17;24603.69;;;-147.39;51.45
3524;BME280;1776;53.330;11.498;2023-05-01T04:02:42;24646.41;;;-147.39;51.95
3524;BME280;1776;53.330;11.498;2023-05-01T04:05:08;24636.22;;;-147.39;51.61
3524;BME280;1776;53.330;11.498;2023-05-01T04:07:33;24626.06;;;-147.39;51.99
3524;BME280;1776;53.330;11.498;2023-05-01T04:09:58;24615.88;;;-147.39;51.71
3524;BME280;1776;53.330;11.498;2023-05-01T04:12:24;24611.81;;;-147.39;51.67
3524;BME280;1776;53.330;11.498;2023-05-01T04:14:49;24632.16;;;-147.39;51.99
3524;BME280;1776;53.330;11.498;2023-05-01T04:17:14;24642.31;;;-147.39;51.57
3524;BME280;1776;53.330;11.498;2023-05-01T04:19:40;24642.31;;;-147.39;52.01
3524;BME280;1776;53.330;11.498;2023-05-01T04:22:05;24611.81;;;-147.39;51.68
3524;BME280;1776;53.330;11.498;2023-05-01T04:24:30;24648.44;;;-147.39;51.88
3524;BME280;1776;53.330;11.498;2023-05-01T04:26:56;24644.34;;;-147.39;51.39
3524;BME280;1776;53.330;11.498;2023-05-01T04:29:22;24613.84;;;-147.39;51.39
3524;BME280;1776;53.330;11.498;2023-05-01T04:31:48;24636.22;;;-147.39;51.68
3524;BME280;1776;53.330;11.498;2023-05-01T04:34:13;24628.09;;;-147.39;51.73
3524;BME280;1776;53.330;11.498;2023-05-01T04:36:38;24622.00;;;-147.39;51.80
3524;BME280;1776;53.330;11.498;2023-05-01T04:39:03;24652.50;;;-147.39;51.72
3524;BME280;1776;53.330;11.498;2023-05-01T04:41:29;24654.53;;;-147.39;51.65
3524;BME280;1776;53.330;11.498;2023-05-01T04:43:54;24640.28;;;-147.39;50.76
3524;BME280;1776;53.330;11.498;2023-05-01T04:46:20;24672.84;;;-147.39;51.17
3524;BME280;1776;53.330;11.498;2023-05-01T04:48:45;24642.31;;;-147.39;51.13
3524;BME280;1776;53.330;11.498;2023-05-01T04:51:10;24624.03;;;-147.39;51.67
3524;BME280;1776;53.330;11.498;2023-05-01T04:53:35;24660.63;;;-147.39;51.60
3524;BME280;1776;53.330;11.498;2023-05-01T04:56:01;24664.69;;;-147.39;51.08
3524;BME280;1776;53.330;11.498;2023-05-01T04:58:26;24640.28;;;-147.39;50.87
3524;BME280;1776;53.330;11.498;2023-05-01T05:00:51;24650.47;;;-147.39;51.00
3524;BME280;1776;53.330;11.498;2023-05-01T05:03:16;24689.09;;;-147.39;51.04
3524;BME280;1776;53.330;11.498;2023-05-01T05:05:43;24703.34;;;-147.39;51.10
3524;BME280;1776;53.330;11.498;2023-05-01T05:08:09;24664.69;;;-147.39;50.36
3524;BME280;1776;53.330;11.498;2023-05-01T05:10:35;24676.91;;;-147.39;50.90
3524;BME280;1776;53.330;11.498;2023-05-01T05:13:00;24676.91;;;-147.39;50.36
3524;BME280;1776;53.330;11.498;2023-05-01T05:15:25;24715.53;;;-147.39;50.60
3524;BME280;1776;53.330;11.498;2023-05-01T05:17:51;24683.00;;;-147.39;49.95
3524;BME280;1776;53.330;11.498;2023-05-01T05:20:16;24715.53;;;-147.39;50.47
3524;BME280;1776;53.330;11.498;2023-05-01T05:22:41;24660.63;;;-147.39;51.32
3524;BME280;1776;53.330;11.498;2023-05-01T05:25:07;24695.19;;;-147.39;50.85
3524;BME280;1776;53.330;11.498;2023-05-01T05:27:32;24699.28;;;-147.39;51.75
3524;BME280;1776;53.330;11.498;2023-05-01T05:30:03;24697.22;;;-147.39;50.45
3524;BME280;1776;53.330;11.498;2023-05-01T05:32:29;24636.22;;;-147.39;51.95
3524;BME280;1776;53.330;11.498;2023-05-01T05:34:55;24685.03;;;-147.39;51.42
3524;BME280;1776;53.330;11.498;2023-05-01T05:37:20;24678.94;;;-147.39;51.77
3524;BME280;1776;53.330;11.498;2023-05-01T05:39:45;24693.16;;;-147.39;51.30
3524;BME280;1776;53.330;11.498;2023-05-01T05:42:11;24683.00;;;-147.39;51.08
3524;BME280;1776;53.330;11.498;2023-05-01T05:44:36;24674.88;;;-147.39;53.10
3524;BME280;1776;53.330;11.498;2023-05-01T05:47:03;24656.56;;;-147.39;52.52
3524;BME280;1776;53.330;11.498;2023-05-01T05:49:28;24678.94;;;-147.39;51.99
3524;BME280;1776;53.330;11.498;2023-05-01T05:51:53;24697.22;;;-147.39;52.23
3524;BME280;1776;53.330;11.498;2023-05-01T05:54:18;24670.78;;;-147.39;52.65
3524;BME280;1776;53.330;11.498;2023-05-01T05:56:44;24691.13;;;-147.39;52.14
3524;BME280;1776;53.330;11.498;2023-05-01T05:59:09;24676.91;;;-147.39;53.09
3524;BME280;1776;53.330;11.498;2023-05-01T06:01:34;24687.06;;;-147.39;52.48
3524;BME280;1776;53.330;11.498;2023-05-01T06:04:01;24719.59;;;-147.39;52.44
3524;BME280;1776;53.330;11.498;2023-05-01T06:06:26;24737.91;;;-147.39;52.29
3524;BME280;1776;53.330;11.498;2023-05-01T06:08:52;24744.00;;;-147.39;52.26
3524;BME280;1776;53.330;11.498;2023-05-01T06:11:17;24707.41;;;-147.39;52.36
3524;BME280;1776;53.330;11.498;2023-05-01T06:13:42;24750.09;;;-147.39;51.79
3524;BME280;1776;53.330;11.498;2023-05-01T06:16:07;24727.75;;;-147.39;51.53
3524;BME280;1776;53.330;11.498;2023-05-01T06:18:33;24766.38;;;-147.39;50.81
3524;BME280;1776;53.330;11.498;2023-05-01T06:20:58;24748.06;;;-147.39;50.83
3524;BME280;1776;53.330;11.498;2023-05-01T06:23:24;24776.53;;;-147.39;50.76
3524;BME280;1776;53.330;11.498;2023-05-01T06:25:49;24798.91;;;-147.39;50.87
3524;BME280;1776;53.330;11.498;2023-05-01T06:28:15;24766.38;;;-147.39;50.57
3524;BME280;1776;53.330;11.498;2023-05-01T06:30:40;24811.13;;;-147.39;50.17
3524;BME280;1776;53.330;11.498;2023-05-01T06:33:06;24798.91;;;-147.39;50.27
3524;BME280;1776;53.330;11.498;2023-05-01T06:35:31;24786.72;;;-147.39;50.24
3524;BME280;1776;53.330;11.498;2023-05-01T06:37:56;24835.53;;;-147.39;49.56
3524;BME280;1776;53.330;11.498;2023-05-01T06:40:21;24835.53;;;-147.39;49.36
3524;BME280;1776;53.330;11.498;2023-05-01T06:42:47;24935.16;;;-147.39;48.68
3524;BME280;1776;53.330;11.498;2023-05-01T06:45:12;24937.19;;;-147.39;48.63
3524;BME280;1776;53.330;11.498;2023-05-01T06:47:37;24961.59;;;-147.39;48.09
3524;BME280;1776;53.330;11.498;2023-05-01T06:50:03;24916.88;;;-147.39;48.04
3524;BME280;1776;53.330;11.498;2023-05-01T06:52:29;24925.00;;;-147.39;48.06
3524;BME280;1776;53.330;11.498;2023-05-01T06:54:54;24933.13;;;-147.39;47.71
3524;BME280;1776;53.330;11.498;2023-05-01T06:57:19;24983.97;;;-147.39;47.50
3524;BME280;1776;53.330;11.498;2023-05-01T06:59:44;24994.16;;;-147.39;46.93
3524;BME280;1776;53.330;11.498;2023-05-01T07:02:10;25010.41;;;-147.39;46.92
3524;BME280;1776;53.330;11.498;2023-05-01T07:04:35;25014.47;;;-147.39;46.36
3524;BME280;1776;53.330;11.498;2023-05-01T07:07:00;25036.84;;;-147.39;45.83
3524;BME280;1776;53.330;11.498;2023-05-01T07:09:27;25049.06;;;-147.39;45.49
3524;BME280;1776;53.330;11.498;2023-05-01T07:11:52;25020.59;;;-147.39;45.64
3524;BME280;1776;53.330;11.498;2023-05-01T07:14:17;25089.72;;;-147.39;45.11
3524;BME280;1776;53.330;11.498;2023-05-01T07:16:43;25079.56;;;-147.39;45.20
3524;BME280;1776;53.330;11.498;2023-05-01T07:19:08;25069.41;;;-147.39;45.56
3524;BME280;1776;53.330;11.498;2023-05-01T07:21:33;25085.66;;;-147.39;45.13
3524;BME280;1776;53.330;11.498;2023-05-01T07:23:59;25103.97;;;-147.39;44.79
3524;BME280;1776;53.330;11.498;2023-05-01T07:26:27;25171.09;;;-147.39;44.73
3524;BME280;1776;53.330;11.498;2023-05-01T07:28:52;25138.53;;;-147.39;44.89
3524;BME280;1776;53.330;11.498;2023-05-01T07:31:17;25148.72;;;-147.39;44.69
3524;BME280;1776;53.330;11.498;2023-05-01T07:33:43;25138.53;;;-147.39;43.77
3524;BME280;1776;53.330;11.498;2023-05-01T07:36:08;25177.19;;;-147.39;43.52
3524;BME280;1776;53.330;11.498;2023-05-01T07:38:33;25201.59;;;-147.39;42.80
3524;BME280;1776;53.330;11.498;2023-05-01T07:40:59;25223.97;;;-147.39;41.91
3524;BME280;1776;53.330;11.498;2023-05-01T07:43:24;25230.06;;;-147.39;42.33
3524;BME280;1776;53.330;11.498;2023-05-01T07:45:53;25240.25;;;-147.39;42.34
3524;BME280;1776;53.330;11.498;2023-05-01T07:48:20;25207.69;;;-147.39;41.78
3524;BME280;1776;53.330;11.498;2023-05-01T07:50:45;25256.50;;;-147.39;41.48
3524;BME280;1776;53.330;11.498;2023-05-01T07:53:10;25282.94;;;-147.39;41.65
3524;BME280;1776;53.330;11.498;2023-05-01T07:55:35;25284.97;;;-147.39;41.57
3524;BME280;1776;53.330;11.498;2023-05-01T07:58:01;25301.25;;;-147.39;40.70
3524;BME280;1776;53.330;11.498;2023-05-01T08:00:27;25366.34;;;-147.39;41.03
3524;BME280;1776;53.330;11.498;2023-05-01T08:02:52;25372.44;;;-147.39;40.53
3524;BME280;1776;53.330;11.498;2023-05-01T08:05:18;25419.22;;;-147.39;39.71
3524;BME280;1776;53.330;11.498;2023-05-01T08:07:43;25415.16;;;-147.39;40.18
3524;BME280;1776;53.330;11.498;2023-05-01T08:10:09;25409.06;;;-147.39;40.30
3524;BME280;1776;53.330;11.498;2023-05-01T08:12:34;25449.72;;;-147.39;40.28
3524;BME280;1776;53.330;11.498;2023-05-01T08:15:00;25449.72;;;-147.39;39.66
3524;BME280;1776;53.330;11.498;2023-05-01T08:17:25;25449.72;;;-147.39;39.25
3524;BME280;1776;53.330;11.498;2023-05-01T08:19:50;25466.00;;;-147.39;39.20
3524;BME280;1776;53.330;11.498;2023-05-01T08:22:20;25553.47;;;-147.39;38.86
3524;BME280;1776;53.330;11.498;2023-05-01T08:24:45;25539.22;;;-147.39;38.64
3524;BME280;1776;53.330;11.498;2023-05-01T08:27:10;25647.03;;;-147.39;38.42
3524;BME280;1776;53.330;11.498;2023-05-01T08:29:36;25622.63;;;-147.39;37.78
3524;BME280;1776;53.330;11.498;2023-05-01T08:32:01;25624.66;;;-147.39;38.04
3524;BME280;1776;53.330;11.498;2023-05-01T08:34:26;25669.41;;;-147.39;37.52
3524;BME280;1776;53.330;11.498;2023-05-01T08:36:51;25667.38;;;-147.39;37.04
3524;BME280;1776;53.330;11.498;2023-05-01T08:39:17;25699.91;;;-147.39;37.04
3524;BME280;1776;53.330;11.498;2023-05-01T08:41:45;25689.75;;;-147.39;36.41
3524;BME280;1776;53.330;11.498;2023-05-01T08:44:13;25758.91;;;-147.39;36.58
3524;BME280;1776;53.330;11.498;2023-05-01T08:47:32;25730.44;;;-147.39;36.37
3524;BME280;1776;53.330;11.498;2023-05-01T08:49:35;25787.38;;;-147.39;35.64
3524;BME280;1776;53.330;11.498;2023-05-01T08:52:01;25819.94;;;-147.39;35.40
3524;BME280;1776;53.330;11.498;2023-05-01T08:54:28;25805.69;;;-147.39;34.62
3524;BME280;1776;53.330;11.498;2023-05-01T08:56:59;25830.09;;;-147.39;35.18
3524;BME280;1776;53.330;11.498;2023-05-01T08:59:26;25809.75;;;-147.39;35.59
3524;BME280;1776;53.330;11.498;2023-05-01T09:01:54;25880.97;;;-147.39;35.49
3524;BME280;1776;53.330;11.498;2023-05-01T09:04:20;25866.72;;;-147.39;34.53
3524;BME280;1776;53.330;11.498;2023-05-01T09:06:46;25868.75;;;-147.39;35.14
3524;BME280;1776;53.330;11.498;2023-05-01T09:09:11;25913.50;;;-147.39;33.99
3524;BME280;1776;53.330;11.498;2023-05-01T09:11:36;25960.28;;;-147.39;33.69
3524;BME280;1776;53.330;11.498;2023-05-01T09:14:02;26029.47;;;-147.39;33.16
3524;BME280;1776;53.330;11.498;2023-05-01T09:16:32;26021.31;;;-147.39;32.48
3524;BME280;1776;53.330;11.498;2023-05-01T09:18:57;26035.56;;;-147.39;33.75
3524;BME280;1776;53.330;11.498;2023-05-01T09:21:24;26043.69;;;-147.39;33.22
3524;BME280;1776;53.330;11.498;2023-05-01T09:23:49;26092.53;;;-147.39;32.79
3524;BME280;1776;53.330;11.498;2023-05-01T09:26:15;26070.16;;;-147.39;32.50
3524;BME280;1776;53.330;11.498;2023-05-01T09:28:47;26163.72;;;-147.39;32.03
3524;BME280;1776;53.330;11.498;2023-05-01T09:31:28;26090.47;;;-147.39;32.25
3524;BME280;1776;53.330;11.498;2023-05-01T09:33:56;26104.72;;;-147.39;32.79
3524;BME280;1776;53.330;11.498;2023-05-01T09:36:23;26133.22;;;-147.39;32.29
3524;BME280;1776;53.330;11.498;2023-05-01T09:38:48;25758.91;;;-147.39;32.23
3524;BME280;1776;53.330;11.498;2023-05-01T09:41:14;26108.78;;;-147.39;32.59
3524;BME280;1776;53.330;11.498;2023-05-01T09:43:40;26143.38;;;-147.39;32.17
3524;BME280;1776;53.330;11.498;2023-05-01T09:46:08;26149.47;;;-147.39;32.48
3524;BME280;1776;53.330;11.498;2023-05-01T09:48:34;26127.09;;;-147.39;31.87
3524;BME280;1776;53.330;11.498;2023-05-01T09:51:00;26175.94;;;-147.39;32.37
3524;BME280;1776;53.330;11.498;2023-05-01T09:53:38;26241.03;;;-147.39;31.53
3524;BME280;1776;53.330;11.498;2023-05-01T09:56:04;26210.50;;;-147.39;32.09
3524;BME280;1776;53.330;11.498;2023-05-01T09:58:30;26186.09;;;-147.39;32.20
3524;BME280;1776;53.330;11.498;2023-05-01T10:00:55;26218.66;;;-147.39;31.50
3524;BME280;1776;53.330;11.498;2023-05-01T10:03:21;26171.84;;;-147.39;32.01
3524;BME280;1776;53.330;11.498;2023-05-01T10:05:46;26236.97;;;-147.39;32.08
3524;BME280;1776;53.330;11.498;2023-05-01T10:08:12;26226.78;;;-147.39;31.84
3524;BME280;1776;53.330;11.498;2023-05-01T10:10:39;26239.00;;;-147.39;32.53
3524;BME280;1776;53.330;11.498;2023-05-01T10:13:15;26281.72;;;-147.39;31.79
3524;BME280;1776;53.330;11.498;2023-05-01T10:15:41;26298.00;;;-147.39;32.00
3524;BME280;1776;53.330;11.498;2023-05-01T10:18:08;26281.72;;;-147.39;31.63
3524;BME280;1776;53.330;11.498;2023-05-01T10:20:34;26304.09;;;-147.39;31.65
3524;BME280;1776;53.330;11.498;2023-05-01T10:23:01;26271.53;;;-147.39;31.02
3524;BME280;1776;53.330;11.498;2023-05-01T10:25:28;26344.78;;;-147.39;31.96
3524;BME280;1776;53.330;11.498;2023-05-01T10:27:53;26328.50;;;-147.39;31.54
3524;BME280;1776;53.330;11.498;2023-05-01T10:30:21;26354.94;;;-147.39;31.83
3524;BME280;1776;53.330;11.498;2023-05-01T10:32:46;26379.38;;;-147.39;31.26
3524;BME280;1776;53.330;11.498;2023-05-01T10:35:20;26340.72;;;-147.39;31.30
3524;BME280;1776;53.330;11.498;2023-05-01T10:43:19;26483.13;;;-147.39;31.64
3524;BME280;1776;53.330;11.498;2023-05-01T10:45:49;26548.22;;;-147.39;31.29
3524;BME280;1776;53.330;11.498;2023-05-01T10:51:10;26582.81;;;-147.39;31.09
3524;BME280;1776;53.330;11.498;2023-05-01T10:53:40;26623.50;;;-147.39;30.57
3524;BME280;1776;53.330;11.498;2023-05-01T10:58:59;26590.97;;;-147.39;30.81
3524;BME280;1776;53.330;11.498;2023-05-01T11:01:37;26574.69;;;-147.39;29.86
3524;BME280;1776;53.330;11.498;2023-05-01T11:09:41;26574.69;;;-147.39;29.78
3524;BME280;1776;53.330;11.498;2023-05-01T11:12:12;26601.13;;;-147.39;29.04
3524;BME280;1776;53.330;11.498;2023-05-01T11:20:06;26491.25;;;-147.39;29.78
3524;BME280;1776;53.330;11.498;2023-05-01T11:22:32;26588.91;;;-147.39;30.29
3524;BME280;1776;53.330;11.498;2023-05-01T11:24:57;26649.97;;;-147.39;30.15
3524;BME280;1776;53.330;11.498;2023-05-01T11:27:23;26706.94;;;-147.39;29.98
3524;BME280;1776;53.330;11.498;2023-05-01T11:29:49;26806.63;;;-147.39;28.72
3524;BME280;1776;53.330;11.498;2023-05-01T11:32:17;26680.47;;;-147.39;28.74
3524;BME280;1776;53.330;11.498;2023-05-01T11:34:43;26708.97;;;-147.39;29.37
3524;BME280;1776;53.330;11.498;2023-05-01T11:37:08;26645.88;;;-147.39;28.61
3524;BME280;1776;53.330;11.498;2023-05-01T11:39:34;26700.81;;;-147.39;28.66
3524;BME280;1776;53.330;11.498;2023-05-01T11:42:08;26684.53;;;-147.39;29.55
3524;BME280;1776;53.330;11.498;2023-05-01T11:44:34;26725.25;;;-147.39;29.25
3524;BME280;1776;53.330;11.498;2023-05-01T11:46:59;26725.25;;;-147.39;28.37
3524;BME280;1776;53.330;11.498;2023-05-01T11:49:26;26702.84;;;-147.39;28.88
3524;BME280;1776;53.330;11.498;2023-05-01T11:51:56;26751.69;;;-147.39;29.02
3524;BME280;1776;53.330;11.498;2023-05-01T11:54:22;26816.81;;;-147.39;28.98
3524;BME280;1776;53.330;11.498;2023-05-01T11:56:56;26770.00;;;-147.39;28.95
3524;BME280;1776;53.330;11.498;2023-05-01T11:59:22;26755.75;;;-147.39;28.64
3524;BME280;1776;53.330;11.498;2023-05-01T12:01:47;26715.06;;;-147.39;29.16
3524;BME280;1776;53.330;11.498;2023-05-01T12:04:26;26776.09;;;-147.39;28.84
3524;BME280;1776;53.330;11.498;2023-05-01T12:06:52;26806.63;;;-147.39;28.70
3524;BME280;1776;53.330;11.498;2023-05-01T12:09:22;26767.97;;;-147.39;28.89
3524;BME280;1776;53.330;11.498;2023-05-01T12:11:51;26800.53;;;-147.39;29.69
3524;BME280;1776;53.330;11.498;2023-05-01T12:14:17;26906.31;;;-147.39;29.03
3524;BME280;1776;53.330;11.498;2023-05-01T12:16:43;26936.84;;;-147.39;29.08
3524;BME280;1776;53.330;11.498;2023-05-01T12:19:12;26918.53;;;-147.39;28.78
3524;BME280;1776;53.330;11.498;2023-05-01T12:21:37;26916.50;;;-147.39;28.97
3524;BME280;1776;53.330;11.498;2023-05-01T12:24:17;26934.81;;;-147.39;28.25
3524;BME280;1776;53.330;11.498;2023-05-01T12:26:44;26949.06;;;-147.39;28.81
3524;BME280;1776;53.330;11.498;2023-05-01T12:29:09;26938.88;;;-147.39;28.63
3524;BME280;1776;53.330;11.498;2023-05-01T12:31:36;26855.47;;;-147.39;28.77
3524;BME280;1776;53.330;11.498;2023-05-01T12:34:04;26957.19;;;-147.39;28.73
3524;BME280;1776;53.330;11.498;2023-05-01T12:36:31;27036.56;;;-147.39;28.36
3524;BME280;1776;53.330;11.498;2023-05-01T12:39:05;27020.28;;;-147.39;28.11
3524;BME280;1776;53.330;11.498;2023-05-01T12:41:41;27034.53;;;-147.39;27.80
3524;BME280;1776;53.330;11.498;2023-05-01T12:46:51;27140.31;;;-147.39;28.49
3524;BME280;1776;53.330;11.498;2023-05-01T12:49:20;27111.84;;;-147.39;27.97
3524;BME280;1776;53.330;11.498;2023-05-01T12:51:49;27152.53;;;-147.39;27.64
3524;BME280;1776;53.330;11.498;2023-05-01T12:54:22;27115.91;;;-147.39;27.62
3524;BME280;1776;53.330;11.498;2023-05-01T12:56:49;27154.56;;;-147.39;27.78
3524;BME280;1776;53.330;11.498;2023-05-01T12:59:26;27081.31;;;-147.39;27.85
3524;BME280;1776;53.330;11.498;2023-05-01T13:02:11;27065.03;;;-147.39;28.18
3524;BME280;1776;53.330;11.498;2023-05-01T13:04:39;27144.41;;;-147.39;28.04
3524;BME280;1776;53.330;11.498;2023-05-01T13:07:16;27233.94;;;-147.39;27.79
3524;BME280;1776;53.330;11.498;2023-05-01T13:09:52;27366.19;;;-147.39;28.35
3524;BME280;1776;53.330;11.498;2023-05-01T13:12:18;27457.78;;;-147.39;27.66
3524;BME280;1776;53.330;11.498;2023-05-01T13:14:43;27362.13;;;-147.39;27.47
3524;BME280;1776;53.330;11.498;2023-05-01T13:17:09;27413.00;;;-147.39;27.76
3524;BME280;1776;53.330;11.498;2023-05-01T13:19:36;27461.84;;;-147.39;27.22